WESTPORT MEDIA Westport In The Media

Enter your "Place, State", US Zip Code or ICAO:  

Nice, France

 Lat: 43.65N, Lon: 7.20E
ICAO Used: LFMN
Current Conditions
Updated: 5:30 PM GMT1 MON DEC 22 2014
Sun & Moon Information
Mostly Clear
Mostly Clear
Temp: 11°C
Humidity: 61%
Wind Speed: NW 9 MPH
Barometer: 1029 mb
Dewpoint: 4°C
Heat Index: 11°C
Wind Chill: 9°C
Civil Twilight: 7:28 AM GMT1 Moon Phase:
Waxing Crescent Moon
Sunrise: 8:01 AM GMT1
Sunset: 4:56 PM GMT1
Civil Twilight: 5:29 PM GMT1
Forecast for Nice, France:
(Forecast based on TAF for )
0100 PM GMT1 MON DEC 22 2014
  
AFTERNOON EVENING OVERNIGHT MORNING AFTERNOON EVENING
Fair Fair Fair Fair Fair Fair
ZoneCast:
Dated: 0100 PM GMT1 MON DEC 22 2014
Afternoon...Becoming fair with winds from the southwest at 12 mph.

Evening...Fair with winds from the southwest at 12 mph.

Overnight...Fair with winds from the north at 17 mph.

Morning...Fair with winds from the north at 17 mph.

Afternoon...Fair with winds from the north at 17 mph.

Evening...Fair with winds from the southwest at 9 mph.

Overnight...Fair with winds from the southwest at 9 mph.

Original Encoded TAF:
Dated: 0100 PM GMT1 MON DEC 22 2014
TAF AMD LFMN 221252Z 2212/2318 33015KT 9999 FEW030 
     BECMG 2212/2215 23010KT 
     BECMG 2217/2220 35015KT 
     TEMPO 2300/2315 BKN010 
     BECMG 2312/2315 23008KT